Cedar Rapids, IA

6:02 AM CDT on March 29, 2015 (GMT -0500)
Vinton-Veterans Memorial | | Change Station
CLOSE
Current Station
Airport
Location: Vinton,
Elevation: 846 ft
Nearby Weather Stations
Active Advisory: Special Statement

Elev 846 ft 42.22 °N, 92.03 °W | Updated 7 minutes ago

Clear
Clear
35 °F
Feels Like 25 °F
N
17
Wind Variable Wind from South

Today
High -- | Low -- °F
--% Chance of Precip.
Yesterday
High -- | Low -- °F
Precip. -- in
6:54 AM 7:28 PM
Waxing Gibbous, 70% visible
Pressure 29.95 in
Visibility 10.0 miles
Clouds Clear
Windchill 25 °F
Dew Point 24 °F
Humidity 65%
Rainfall 0.00 in
Snow Depth Not available.
UV 0 out of 12
Pollen 4.80 out of 12
Air Quality Not available.
Flu Activity Not available.
METAR KVTI 291055Z AUTO 17015KT 10SM CLR 02/M04 A2995 RMK AO2 T00171042

More Conditions Fewer Conditions

Pressure 29.95 in
Visibility 10.0 miles
Clouds Clear
Windchill 25 °F
Dew Point 24 °F
Humidity 65%
Rainfall 0.00 in
Snow Depth Not available.
UV 0 out of 12
Pollen 4.80 out of 12
Air Quality Not available.
Flu Activity Not available.
METAR KVTI 291055Z AUTO 17015KT 10SM CLR 02/M04 A2995 RMK AO2 T00171042

More Conditions Fewer Conditions

10-Day Weather Forecast

Almanac

Astronomy

Mar. 29, 2015 Rise Set
Actual Time
Civil Twilight
Nautical Twilight
Astronomical Twilight
Moon
Length of Visible Light
Length of Day
Tomorrow will be .
, % of the Moon is Illuminated

Today's Extremes

State Highs State Lows

Community

WunderPhotos

Upload Photos

1,809,214 photos uploaded!

WunderBlogs® & News

Nearby

Air Quality

  Air Quality AQ Index Pollutant
Not available.

Snow Depth

Station Depth Elevation

Earthquake Activity

City Distance Mag. Time & Date
Minimum magnitude displayed is 2.5.

Coastal Water Temperatures

Place Temperature

Stations

Nearby Weather Stations

Station Location Temp. Windchill Dew Point Humidity Wind Precip. Elev Updated Type
                   
Special Statement
Statement as of 5:16 AM CDT on March 29, 2015

... Brief wintry mix this morning...

An area of rain is moving across Iowa and will move into illionis
between 6 and 7 am. With temperatures hovering near or at freezing
across the area... freezing rain is possible. Little to no ice
accumulation are expected at this time. The freezing rain will
transition to all rain shortly after it begins as temperatures
continue to rise. Those who are travelling this morning should be
alert for possible slippery conditions. Temperatures will warm
above freezing quickly this morning... so any accumulation of ice
should melt this morning.